createdAt,value
2018-09-22T00:02:20.954Z,17.20
2018-09-22T00:04:52.773Z,17.20
2018-09-22T00:07:24.254Z,17.10
2018-09-22T00:09:56.154Z,17.10
2018-09-22T00:12:27.674Z,17.10
2018-09-22T00:14:59.994Z,17.10
2018-09-22T00:17:32.234Z,17.10
2018-09-22T00:20:03.614Z,17.00
2018-09-22T00:22:36.474Z,17.10
2018-09-22T00:25:09.275Z,17.10
2018-09-22T00:27:40.854Z,17.10
2018-09-22T00:30:13.855Z,17.00
2018-09-22T00:32:45.273Z,17.00
2018-09-22T00:35:18.574Z,17.00
2018-09-22T00:37:49.754Z,17.00
2018-09-22T00:40:22.234Z,17.00
2018-09-22T00:42:55.674Z,17.00
2018-09-22T00:45:27.795Z,16.90
2018-09-22T00:47:59.834Z,16.90
2018-09-22T00:50:32.975Z,16.80
2018-09-22T00:53:05.075Z,16.70
2018-09-22T00:55:37.113Z,16.70
2018-09-22T00:58:09.474Z,16.60
2018-09-22T01:00:40.794Z,16.50
2018-09-22T01:03:12.076Z,16.50
2018-09-22T01:05:44.254Z,16.50
2018-09-22T01:08:16.374Z,16.40
2018-09-22T01:10:48.295Z,16.30
2018-09-22T01:13:20.593Z,16.30
2018-09-22T01:15:52.361Z,16.30
2018-09-22T01:18:24.474Z,16.30
2018-09-22T01:20:57.134Z,16.30
2018-09-22T01:23:29.523Z,16.30
2018-09-22T01:26:01.755Z,16.40
2018-09-22T01:28:34.214Z,16.40
2018-09-22T01:31:05.654Z,16.30
2018-09-22T01:33:37.854Z,16.30
2018-09-22T01:36:09.334Z,16.30
2018-09-22T01:38:41.495Z,16.30
2018-09-22T01:41:12.974Z,16.30
2018-09-22T01:43:45.154Z,16.20
2018-09-22T01:46:17.454Z,16.20
2018-09-22T01:48:49.474Z,16.10
2018-09-22T01:51:21.054Z,16.00
2018-09-22T01:53:52.795Z,16.00
2018-09-22T01:56:24.074Z,16.00
2018-09-22T01:58:56.796Z,16.00
2018-09-22T02:01:28.514Z,16.10
2018-09-22T02:04:00.795Z,16.10
2018-09-22T02:06:32.754Z,16.20
2018-09-22T02:09:05.495Z,16.20
2018-09-22T02:11:37.754Z,16.20
2018-09-22T02:14:10.035Z,16.30
2018-09-22T02:16:42.654Z,16.20
2018-09-22T02:19:14.576Z,16.10
2018-09-22T02:21:46.637Z,16.00
2018-09-22T02:24:19.333Z,15.90
2018-09-22T02:26:50.574Z,15.90
2018-09-22T02:29:22.214Z,15.90
2018-09-22T02:31:54.074Z,15.90
2018-09-22T02:34:26.717Z,16.00
2018-09-22T02:36:58.935Z,16.00
2018-09-22T02:39:30.395Z,16.00
2018-09-22T02:42:02.075Z,16.10
2018-09-22T02:44:33.757Z,16.20
2018-09-22T02:47:05.974Z,16.10
2018-09-22T02:49:37.533Z,16.00
2018-09-22T02:52:09.335Z,16.00
2018-09-22T02:54:41.114Z,16.00
2018-09-22T02:57:13.395Z,16.10
2018-09-22T02:59:44.800Z,16.10
2018-09-22T03:02:17.014Z,16.00
2018-09-22T03:04:48.814Z,15.90
2018-09-22T03:07:20.994Z,15.80
2018-09-22T03:09:53.014Z,15.80
2018-09-22T03:12:24.654Z,15.70
2018-09-22T03:14:57.221Z,15.70
2018-09-22T03:17:28.474Z,15.60
2018-09-22T03:20:01.114Z,15.60
2018-09-22T03:22:33.513Z,15.60
2018-09-22T03:25:05.153Z,15.70
2018-09-22T03:27:37.395Z,15.70
2018-09-22T03:30:09.433Z,15.70
2018-09-22T03:32:41.474Z,15.70
2018-09-22T03:35:13.114Z,15.70
2018-09-22T03:37:44.894Z,15.70
2018-09-22T03:40:16.234Z,15.70
2018-09-22T03:42:48.334Z,15.70
2018-09-22T03:45:19.873Z,15.70
2018-09-22T03:47:52.114Z,15.80
2018-09-22T03:50:24.047Z,15.80
2018-09-22T03:52:55.836Z,15.70
2018-09-22T03:55:27.195Z,15.70
2018-09-22T03:57:58.294Z,15.60
2018-09-22T04:00:30.134Z,15.60
2018-09-22T04:03:01.635Z,15.60
2018-09-22T04:05:33.595Z,15.60
2018-09-22T04:08:06.934Z,15.60
2018-09-22T04:10:39.433Z,15.70
2018-09-22T04:13:11.194Z,15.60
2018-09-22T04:15:43.194Z,15.50
2018-09-22T04:18:14.315Z,15.50
2018-09-22T04:20:46.453Z,15.50
2018-09-22T04:23:17.795Z,15.40
2018-09-22T04:25:50.794Z,15.40
2018-09-22T04:28:22.695Z,15.40
2018-09-22T04:30:55.073Z,15.50
2018-09-22T04:33:27.316Z,15.60
2018-09-22T04:35:59.194Z,15.50
2018-09-22T04:38:31.595Z,15.50
2018-09-22T04:41:03.214Z,15.50
2018-09-22T04:43:33.174Z,15.60
2018-09-22T04:46:05.096Z,15.50
2018-09-22T04:48:36.954Z,15.50
2018-09-22T04:51:09.554Z,15.60
2018-09-22T04:53:42.614Z,15.60
2018-09-22T04:56:14.574Z,15.60
2018-09-22T04:58:46.234Z,15.60
2018-09-22T05:01:17.994Z,15.60
2018-09-22T05:03:49.874Z,15.70
2018-09-22T05:06:22.593Z,15.70
2018-09-22T05:08:54.874Z,15.70
2018-09-22T05:11:26.554Z,15.70
2018-09-22T05:13:59.455Z,15.70
2018-09-22T05:16:30.554Z,15.60
2018-09-22T05:19:02.614Z,15.50
2018-09-22T05:21:34.296Z,15.40
2018-09-22T05:24:06.254Z,15.30
2018-09-22T05:26:37.654Z,15.20
2018-09-22T05:29:09.877Z,15.20
2018-09-22T05:31:41.614Z,15.30
2018-09-22T05:34:13.813Z,15.30
2018-09-22T05:36:45.054Z,15.30
2018-09-22T05:39:16.934Z,15.30
2018-09-22T05:41:48.561Z,15.30
2018-09-22T05:44:21.513Z,15.30
2018-09-22T05:46:52.794Z,15.30
2018-09-22T05:49:24.596Z,15.20
2018-09-22T05:51:56.495Z,15.20
2018-09-22T05:54:27.913Z,15.30
2018-09-22T05:56:59.909Z,15.30
2018-09-22T05:59:32.314Z,15.20
2018-09-22T06:02:05.013Z,15.20
2018-09-22T06:04:36.814Z,15.10
2018-09-22T06:07:08.635Z,15.20
2018-09-22T06:09:40.302Z,15.20
2018-09-22T06:12:12.533Z,15.20
2018-09-22T06:14:44.853Z,15.20
2018-09-22T06:17:16.635Z,15.30
2018-09-22T06:19:48.954Z,15.40
2018-09-22T06:22:21.195Z,15.50
2018-09-22T06:24:53.414Z,15.50
2018-09-22T06:27:25.834Z,15.60
2018-09-22T06:29:58.673Z,15.60
2018-09-22T06:32:29.814Z,15.60
2018-09-22T06:35:02.295Z,15.60
2018-09-22T06:37:34.364Z,15.60
2018-09-22T06:40:06.557Z,15.70
2018-09-22T06:42:38.514Z,15.70
2018-09-22T06:45:10.594Z,15.70
2018-09-22T06:47:42.613Z,15.80
2018-09-22T06:50:13.914Z,15.80
2018-09-22T06:52:46.314Z,15.80
2018-09-22T06:55:17.673Z,15.80
2018-09-22T06:57:49.856Z,15.80
2018-09-22T07:00:21.294Z,15.90
2018-09-22T07:02:52.540Z,15.90
2018-09-22T07:05:24.475Z,16.00
2018-09-22T07:07:56.645Z,16.00
2018-09-22T07:10:27.406Z,16.00
2018-09-22T07:12:59.686Z,16.20
2018-09-22T07:15:31.387Z,16.30
2018-09-22T07:18:04.149Z,16.30
2018-09-22T07:20:35.965Z,16.30
2018-09-22T07:23:11.506Z,16.30
2018-09-22T07:25:44.049Z,16.30
2018-09-22T07:28:15.908Z,16.40
2018-09-22T07:30:47.496Z,16.40
2018-09-22T07:33:21.709Z,16.50
2018-09-22T07:35:53.680Z,16.40
2018-09-22T07:38:25.653Z,16.50
2018-09-22T07:40:57.352Z,16.60
2018-09-22T07:43:29.573Z,16.60
2018-09-22T07:46:00.814Z,16.60
2018-09-22T07:48:32.192Z,16.70
2018-09-22T07:51:03.473Z,16.70
2018-09-22T07:53:34.712Z,16.80
2018-09-22T07:56:06.113Z,16.90
2018-09-22T07:58:38.289Z,17.00
2018-09-22T08:01:09.820Z,17.10
2018-09-22T08:03:41.312Z,17.10
2018-09-22T08:06:12.795Z,17.10
2018-09-22T08:08:44.857Z,17.10
2018-09-22T08:11:15.557Z,17.20
2018-09-22T08:13:47.157Z,17.30
2018-09-22T08:16:19.401Z,17.30
2018-09-22T08:18:51.339Z,17.30
2018-09-22T08:21:23.019Z,17.30
2018-09-22T08:23:54.261Z,17.40
2018-09-22T08:26:25.940Z,17.50
2018-09-22T08:28:57.520Z,17.60
2018-09-22T08:31:29.666Z,17.80
2018-09-22T08:34:01.780Z,17.80
2018-09-22T08:36:33.188Z,17.90
2018-09-22T08:39:06.054Z,18.00
2018-09-22T08:41:38.055Z,18.00
2018-09-22T08:44:09.376Z,18.00
2018-09-22T08:46:40.836Z,18.10
2018-09-22T08:49:13.035Z,18.10
2018-09-22T08:51:45.105Z,18.20
2018-09-22T08:54:17.426Z,18.30
2018-09-22T08:56:48.682Z,18.30
2018-09-22T08:59:21.290Z,18.30
2018-09-22T09:01:52.989Z,18.30
2018-09-22T09:04:25.166Z,18.30
2018-09-22T09:06:56.307Z,18.40
2018-09-22T09:09:29.106Z,18.50
2018-09-22T09:12:00.351Z,18.50
2018-09-22T09:14:32.494Z,18.50
2018-09-22T09:17:05.351Z,18.50
2018-09-22T09:19:37.111Z,18.40
2018-09-22T09:22:08.374Z,18.50
2018-09-22T09:24:39.893Z,18.50
2018-09-22T09:27:11.183Z,18.40
2018-09-22T09:29:43.605Z,18.30
2018-09-22T09:32:17.531Z,18.30
2018-09-22T09:34:49.264Z,18.40
2018-09-22T09:37:21.583Z,18.50
2018-09-22T09:39:52.383Z,18.70
2018-09-22T09:42:24.502Z,18.70
2018-09-22T09:44:56.682Z,18.70
2018-09-22T09:47:28.058Z,18.70
2018-09-22T09:50:00.289Z,18.90
2018-09-22T09:52:32.101Z,19.00
2018-09-22T09:55:04.170Z,19.00
2018-09-22T09:57:35.510Z,19.10
2018-09-22T10:00:08.049Z,19.20
2018-09-22T10:02:39.870Z,19.30
2018-09-22T10:05:10.861Z,19.40
2018-09-22T10:07:42.551Z,19.50
2018-09-22T10:10:15.026Z,19.60
2018-09-22T10:12:46.919Z,19.70
2018-09-22T10:15:18.742Z,19.80
2018-09-22T10:17:49.941Z,19.90
2018-09-22T10:20:21.810Z,19.90
2018-09-22T10:22:53.287Z,20.00
2018-09-22T10:25:24.961Z,20.10
2018-09-22T10:27:56.711Z,20.00
2018-09-22T10:30:28.637Z,20.00
2018-09-22T10:33:00.537Z,20.10
2018-09-22T10:35:32.214Z,20.10
2018-09-22T10:38:03.994Z,20.10
2018-09-22T10:40:35.713Z,20.20
2018-09-22T10:43:07.879Z,20.10
2018-09-22T10:45:39.568Z,20.10
2018-09-22T10:48:11.139Z,20.00
2018-09-22T10:50:42.819Z,20.00
2018-09-22T10:53:15.901Z,20.10
2018-09-22T10:55:49.161Z,20.10
2018-09-22T10:58:20.591Z,20.20
2018-09-22T11:00:52.946Z,20.40
2018-09-22T11:03:24.310Z,20.50
2018-09-22T11:05:56.466Z,20.70
2018-09-22T11:08:28.386Z,20.70
2018-09-22T11:11:00.048Z,20.90
2018-09-22T11:13:30.909Z,21.00
2018-09-22T11:16:03.034Z,20.90
2018-09-22T11:18:34.614Z,20.70
2018-09-22T11:21:06.297Z,20.70
2018-09-22T11:23:37.834Z,20.80
2018-09-22T11:26:10.276Z,20.80
2018-09-22T11:28:41.895Z,21.00
2018-09-22T11:31:14.071Z,21.10
2018-09-22T11:33:45.252Z,21.30
2018-09-22T11:36:16.565Z,21.50
2018-09-22T11:38:47.928Z,21.70
2018-09-22T11:41:20.037Z,21.80
2018-09-22T11:43:51.628Z,21.90
2018-09-22T11:46:23.824Z,22.10
2018-09-22T11:48:54.872Z,22.30
2018-09-22T11:51:27.652Z,22.40
2018-09-22T11:53:59.068Z,22.30
2018-09-22T11:56:31.680Z,22.30
2018-09-22T11:59:02.758Z,22.30
2018-09-22T12:01:34.963Z,22.30
2018-09-22T12:04:06.180Z,22.30
2018-09-22T12:06:38.703Z,22.40
2018-09-22T12:09:11.899Z,22.60
2018-09-22T12:11:42.889Z,22.80
2018-09-22T12:14:13.558Z,22.90
2018-09-22T12:16:45.565Z,23.00
2018-09-22T12:19:17.847Z,23.10
2018-09-22T12:21:49.324Z,23.30
2018-09-22T12:24:21.167Z,23.50
2018-09-22T12:26:53.063Z,23.60
2018-09-22T12:29:25.010Z,23.80
2018-09-22T12:31:57.026Z,24.00
2018-09-22T12:34:28.903Z,24.00
2018-09-22T12:37:00.803Z,24.20
2018-09-22T12:39:32.523Z,24.50
2018-09-22T12:42:04.803Z,24.60
2018-09-22T12:44:36.945Z,24.90
2018-09-22T12:47:08.363Z,24.70
2018-09-22T12:49:40.944Z,25.00
2018-09-22T12:52:13.429Z,25.20
2018-09-22T12:54:44.843Z,25.40
2018-09-22T12:57:16.564Z,25.60
2018-09-22T12:59:48.305Z,25.70
2018-09-22T13:02:20.366Z,25.60
2018-09-22T13:04:51.723Z,25.40
2018-09-22T13:07:23.263Z,25.20
2018-09-22T13:09:57.105Z,25.00
2018-09-22T13:12:29.263Z,24.80
2018-09-22T13:15:01.966Z,24.50
2018-09-22T13:17:33.643Z,24.30
2018-09-22T13:20:05.350Z,24.00
2018-09-22T13:22:37.003Z,23.70
2018-09-22T13:25:09.224Z,23.30
2018-09-22T13:27:41.264Z,23.20
2018-09-22T13:30:13.322Z,23.00
2018-09-22T13:32:44.962Z,22.90
2018-09-22T13:35:16.784Z,22.80
2018-09-22T13:37:47.923Z,22.70
2018-09-22T13:40:19.746Z,22.60
2018-09-22T13:42:51.563Z,22.60
2018-09-22T13:45:23.405Z,22.60
2018-09-22T13:47:55.184Z,22.40
2018-09-22T13:50:27.803Z,22.30
2018-09-22T13:52:59.964Z,22.20
2018-09-22T13:55:32.266Z,22.10
2018-09-22T13:58:04.764Z,22.00
2018-09-22T14:00:36.464Z,21.90
2018-09-22T14:03:08.363Z,21.70
2018-09-22T14:05:40.304Z,21.60
2018-09-22T14:08:12.524Z,21.40
2018-09-22T14:10:44.263Z,21.40
2018-09-22T14:13:16.303Z,21.30
2018-09-22T14:15:47.624Z,21.30
2018-09-22T14:18:19.523Z,21.20
2018-09-22T14:20:51.663Z,21.20
2018-09-22T14:23:23.203Z,21.20
2018-09-22T14:25:56.142Z,21.30
2018-09-22T14:28:27.984Z,21.30
2018-09-22T14:31:00.944Z,21.30
2018-09-22T14:33:33.044Z,21.30
2018-09-22T14:36:04.943Z,21.20
2018-09-22T14:38:37.063Z,21.20
2018-09-22T14:41:08.943Z,21.10
2018-09-22T14:43:40.763Z,21.10
2018-09-22T14:46:12.683Z,21.00
2018-09-22T14:48:45.043Z,21.00
2018-09-22T14:51:16.904Z,21.00
2018-09-22T14:53:49.144Z,21.00
2018-09-22T14:56:20.345Z,21.00
2018-09-22T14:58:52.944Z,20.90
2018-09-22T15:01:25.624Z,20.90
2018-09-22T15:03:57.628Z,20.90
2018-09-22T15:06:29.765Z,20.90
2018-09-22T15:09:01.003Z,21.00
2018-09-22T15:11:32.884Z,21.00
2018-09-22T15:14:04.684Z,21.00
2018-09-22T15:16:36.245Z,21.00
2018-09-22T15:19:07.984Z,21.10
2018-09-22T15:21:39.884Z,21.20
2018-09-22T15:24:11.683Z,21.10
2018-09-22T15:26:44.105Z,21.20
2018-09-22T15:29:15.543Z,21.20
2018-09-22T15:31:47.645Z,21.20
2018-09-22T15:34:18.766Z,21.20
2018-09-22T15:36:51.257Z,21.20
2018-09-22T15:39:22.584Z,21.20
2018-09-22T15:41:53.911Z,21.10
2018-09-22T15:44:25.565Z,21.10
2018-09-22T15:46:57.683Z,21.00
2018-09-22T15:49:29.563Z,21.10
2018-09-22T15:52:01.578Z,21.00
2018-09-22T15:54:33.603Z,21.00
2018-09-22T15:57:06.543Z,20.90
2018-09-22T15:59:38.366Z,20.90
2018-09-22T16:02:10.543Z,21.00
2018-09-22T16:04:43.203Z,20.90
2018-09-22T16:07:14.743Z,21.00
2018-09-22T16:09:46.806Z,20.90
2018-09-22T16:12:19.493Z,20.90
2018-09-22T16:14:51.604Z,20.90
2018-09-22T16:17:22.783Z,20.90
2018-09-22T16:19:54.107Z,20.90
2018-09-22T16:22:26.604Z,20.90
2018-09-22T16:24:58.464Z,20.90
2018-09-22T16:27:30.504Z,21.00
2018-09-22T16:30:02.383Z,20.90
2018-09-22T16:32:34.343Z,20.90
2018-09-22T16:35:05.722Z,20.80
2018-09-22T16:37:37.963Z,20.70
2018-09-22T16:40:09.102Z,20.70
2018-09-22T16:42:41.563Z,20.70
2018-09-22T16:45:13.643Z,20.70
2018-09-22T16:47:45.323Z,20.70
2018-09-22T16:50:16.643Z,20.70
2018-09-22T16:52:48.628Z,20.60
2018-09-22T16:55:21.403Z,20.60
2018-09-22T16:57:53.123Z,20.50
2018-09-22T17:00:25.004Z,20.40
2018-09-22T17:02:56.964Z,20.40
2018-09-22T17:05:28.363Z,20.40
2018-09-22T17:07:59.763Z,20.30
2018-09-22T17:10:31.218Z,20.30
2018-09-22T17:13:03.146Z,20.30
2018-09-22T17:15:34.506Z,20.10
2018-09-22T17:18:06.163Z,20.00
2018-09-22T17:20:38.023Z,19.90
2018-09-22T17:23:09.763Z,19.90
2018-09-22T17:25:41.583Z,19.90
2018-09-22T17:28:13.645Z,20.00
2018-09-22T17:30:45.184Z,19.90
2018-09-22T17:33:18.225Z,19.80
2018-09-22T17:35:50.763Z,19.80
2018-09-22T17:38:22.245Z,19.80
2018-09-22T17:40:54.507Z,19.90
2018-09-22T17:43:25.015Z,19.90
2018-09-22T17:45:58.123Z,19.80
2018-09-22T17:48:30.923Z,19.70
2018-09-22T17:51:03.143Z,19.70
2018-09-22T17:53:35.692Z,19.70
2018-09-22T17:56:06.943Z,19.60
2018-09-22T17:58:38.683Z,19.60
2018-09-22T18:01:10.404Z,19.60
2018-09-22T18:03:43.266Z,19.60
2018-09-22T18:06:15.644Z,19.50
2018-09-22T18:08:47.603Z,19.50
2018-09-22T18:11:19.144Z,19.50
2018-09-22T18:13:50.563Z,19.50
2018-09-22T18:16:21.864Z,19.50
2018-09-22T18:18:54.503Z,19.40
2018-09-22T18:21:26.163Z,19.30
2018-09-22T18:23:58.383Z,19.40
2018-09-22T18:26:30.403Z,19.30
2018-09-22T18:29:02.166Z,19.30
2018-09-22T18:31:34.803Z,19.20
2018-09-22T18:34:06.533Z,19.10
2018-09-22T18:36:38.704Z,19.00
2018-09-22T18:39:10.308Z,19.00
2018-09-22T18:41:42.843Z,19.00
2018-09-22T18:44:14.615Z,19.00
2018-09-22T18:46:46.363Z,18.90
2018-09-22T18:49:18.444Z,18.90
2018-09-22T18:51:50.323Z,18.80
2018-09-22T18:54:22.083Z,18.70
2018-09-22T18:56:53.905Z,18.70
2018-09-22T18:59:25.163Z,18.70
2018-09-22T19:01:56.946Z,18.70
2018-09-22T19:04:29.823Z,18.70
2018-09-22T19:07:01.583Z,18.70
2018-09-22T19:09:34.262Z,18.70
2018-09-22T19:12:07.043Z,18.70
2018-09-22T19:14:43.064Z,18.70
2018-09-22T19:17:21.685Z,18.70
2018-09-22T19:19:57.843Z,18.70
2018-09-22T19:22:34.503Z,18.80
2018-09-22T19:25:10.363Z,18.90
2018-09-22T19:28:46.225Z,18.90
2018-09-22T19:31:25.465Z,18.90
2018-09-22T19:34:05.065Z,18.80
2018-09-22T19:36:47.992Z,18.90
2018-09-22T19:39:25.607Z,18.90
2018-09-22T19:42:02.109Z,19.00
2018-09-22T19:44:37.866Z,19.00
2018-09-22T19:47:43.366Z,19.00
2018-09-22T19:50:18.165Z,19.10
2018-09-22T19:52:52.905Z,18.90
2018-09-22T19:55:24.786Z,18.70
2018-09-22T19:57:56.217Z,18.70
2018-09-22T20:00:27.866Z,18.60
2018-09-22T20:02:59.786Z,18.60
2018-09-22T20:05:32.525Z,18.60
2018-09-22T20:08:04.365Z,18.60
2018-09-22T20:10:36.148Z,18.50
2018-09-22T20:13:08.286Z,18.50
2018-09-22T20:15:40.145Z,18.60
2018-09-22T20:18:12.489Z,18.60
2018-09-22T20:20:43.466Z,18.70
2018-09-22T20:23:15.625Z,18.70
2018-09-22T20:25:47.285Z,18.70
2018-09-22T20:28:19.485Z,18.70
2018-09-22T20:30:51.085Z,18.60
2018-09-22T20:33:22.940Z,18.60
2018-09-22T20:35:54.432Z,18.60
2018-09-22T20:38:26.986Z,18.50
2018-09-22T20:40:58.685Z,18.40
2018-09-22T20:43:30.605Z,18.50
2018-09-22T20:46:02.085Z,18.50
2018-09-22T20:48:34.365Z,18.50
2018-09-22T20:51:05.585Z,18.50
2018-09-22T20:53:37.630Z,18.50
2018-09-22T20:56:08.505Z,18.50
2018-09-22T20:58:39.665Z,18.50
2018-09-22T21:01:11.546Z,18.50
2018-09-22T21:03:43.305Z,18.60
2018-09-22T21:06:14.927Z,18.60
2018-09-22T21:08:47.425Z,18.60
2018-09-22T21:11:19.205Z,18.50
2018-09-22T21:13:51.145Z,18.50
2018-09-22T21:16:22.725Z,18.50
2018-09-22T21:18:54.678Z,18.40
2018-09-22T21:21:26.567Z,18.40
2018-09-22T21:23:59.567Z,18.40
2018-09-22T21:26:31.725Z,18.30
2018-09-22T21:29:03.325Z,18.40
2018-09-22T21:31:35.146Z,18.40
2018-09-22T21:34:07.384Z,18.40
2018-09-22T21:36:38.984Z,18.50
2018-09-22T21:39:11.449Z,18.50
2018-09-22T21:41:43.534Z,18.50
2018-09-22T21:44:15.825Z,18.50
2018-09-22T21:46:47.065Z,18.50
2018-09-22T21:49:19.465Z,18.50
2018-09-22T21:51:51.405Z,18.60
2018-09-22T21:54:24.165Z,18.60
2018-09-22T21:56:55.885Z,18.60
2018-09-22T21:59:28.165Z,18.50
2018-09-22T22:02:00.525Z,18.60
2018-09-22T22:04:31.944Z,18.50
2018-09-22T22:07:03.885Z,18.50
2018-09-22T22:09:35.524Z,18.50
2018-09-22T22:12:07.785Z,18.50
2018-09-22T22:14:46.205Z,18.50
2018-09-22T22:17:17.425Z,18.50
2018-09-22T22:19:49.425Z,18.40
2018-09-22T22:22:21.664Z,18.40
2018-09-22T22:24:53.884Z,18.40
2018-09-22T22:27:26.465Z,18.50
2018-09-22T22:29:59.314Z,18.50
2018-09-22T22:32:30.987Z,18.40
2018-09-22T22:35:03.030Z,18.40
2018-09-22T22:37:34.245Z,18.30
2018-09-22T22:40:06.186Z,18.30
2018-09-22T22:42:38.145Z,18.40
2018-09-22T22:45:10.425Z,18.40
2018-09-22T22:47:42.365Z,18.40
2018-09-22T22:50:13.625Z,18.40
2018-09-22T22:52:45.425Z,18.40
2018-09-22T22:55:17.745Z,18.40
2018-09-22T22:57:49.126Z,18.30
2018-09-22T23:00:20.203Z,18.30
2018-09-22T23:02:51.964Z,18.40
2018-09-22T23:05:23.965Z,18.40
2018-09-22T23:07:56.228Z,18.40
2018-09-22T23:10:28.345Z,18.40
2018-09-22T23:13:00.165Z,18.40
2018-09-22T23:15:32.225Z,18.40
2018-09-22T23:18:04.345Z,18.40
2018-09-22T23:20:36.107Z,18.40
2018-09-22T23:23:06.906Z,18.40
2018-09-22T23:25:39.005Z,18.50
2018-09-22T23:28:10.828Z,18.50
2018-09-22T23:30:43.205Z,18.50
2018-09-22T23:33:15.130Z,18.50
2018-09-22T23:35:47.385Z,18.50
2018-09-22T23:38:18.985Z,18.60
2018-09-22T23:40:51.046Z,18.50
2018-09-22T23:43:23.387Z,18.40
2018-09-22T23:45:54.785Z,18.50
2018-09-22T23:48:26.865Z,18.40
2018-09-22T23:50:58.305Z,18.20
2018-09-22T23:53:29.665Z,18.10
2018-09-22T23:56:01.445Z,18.10
2018-09-22T23:58:33.561Z,18.00
